createdAt,value
2023-04-27T00:00:41.824Z,2.61
2023-04-27T00:05:32.359Z,2.83
2023-04-27T00:10:22.447Z,2.64
2023-04-27T00:15:13.916Z,2.65
2023-04-27T00:20:07.884Z,2.55
2023-04-27T00:24:59.908Z,2.58
2023-04-27T00:29:49.814Z,2.49
2023-04-27T00:34:40.403Z,2.52
2023-04-27T00:39:33.069Z,2.46
2023-04-27T00:44:27.493Z,2.39
2023-04-27T00:49:19.443Z,2.43
2023-04-27T00:54:10.405Z,2.43
2023-04-27T00:59:02.978Z,2.21
2023-04-27T01:03:53.017Z,2.32
2023-04-27T01:08:43.281Z,1.98
2023-04-27T01:13:33.228Z,2.20
2023-04-27T01:18:26.967Z,2.15
2023-04-27T01:23:19.857Z,2.15
2023-04-27T01:28:09.706Z,2.09
2023-04-27T01:33:00.949Z,1.93
2023-04-27T01:37:50.920Z,1.89
2023-04-27T01:42:43.530Z,1.91
2023-04-27T01:47:33.515Z,1.56
2023-04-27T01:52:23.412Z,1.84
2023-04-27T01:57:14.533Z,1.83
2023-04-27T02:02:07.351Z,1.75
2023-04-27T02:06:59.951Z,1.76
2023-04-27T02:11:50.838Z,1.73
2023-04-27T02:16:40.806Z,1.66
2023-04-27T02:21:36.615Z,1.62
2023-04-27T02:26:29.643Z,1.27
2023-04-27T02:31:20.666Z,1.54
2023-04-27T02:36:11.865Z,1.41
2023-04-27T02:41:04.451Z,1.44
2023-04-27T02:45:57.330Z,1.29
2023-04-27T02:50:48.056Z,1.32
2023-04-27T02:55:41.225Z,1.35
2023-04-27T03:00:34.305Z,1.27
2023-04-27T03:05:29.197Z,1.20
2023-04-27T03:10:19.314Z,1.27
2023-04-27T03:15:10.346Z,1.12
2023-04-27T03:20:05.103Z,1.19
2023-04-27T03:24:54.987Z,1.13
2023-04-27T03:29:44.931Z,1.20
2023-04-27T03:34:34.993Z,1.14
2023-04-27T03:39:27.887Z,1.11
2023-04-27T03:44:17.919Z,1.04
2023-04-27T03:49:09.956Z,0.96
2023-04-27T03:54:00.248Z,0.83
2023-04-27T03:58:53.364Z,0.79
2023-04-27T04:03:45.727Z,0.82
2023-04-27T04:08:35.924Z,0.64
2023-04-27T04:13:27.127Z,0.76
2023-04-27T04:18:19.964Z,0.83
2023-04-27T04:23:10.683Z,0.68
2023-04-27T04:28:01.174Z,0.68
2023-04-27T04:32:53.954Z,0.79
2023-04-27T04:37:47.037Z,0.79
2023-04-27T04:42:38.049Z,0.71
2023-04-27T04:47:28.858Z,0.85
2023-04-27T04:52:18.848Z,0.74
2023-04-27T04:57:11.377Z,0.83
2023-04-27T05:02:01.831Z,0.81
2023-04-27T05:06:53.118Z,0.95
2023-04-27T05:11:56.720Z,0.88
2023-04-27T05:16:49.589Z,0.96
2023-04-27T05:21:40.575Z,1.06
2023-04-27T05:26:30.753Z,1.09
2023-04-27T05:31:21.456Z,1.10
2023-04-27T05:36:14.848Z,1.02
2023-04-27T05:41:05.190Z,1.03
2023-04-27T05:45:56.199Z,1.23
2023-04-27T05:50:46.580Z,1.29
2023-04-27T05:55:39.654Z,1.30
2023-04-27T06:00:29.673Z,1.26
2023-04-27T06:05:20.069Z,1.46
2023-04-27T06:10:11.931Z,1.43
2023-04-27T06:15:08.686Z,1.57
2023-04-27T06:20:01.020Z,1.62
2023-04-27T06:24:50.941Z,1.77
2023-04-27T06:29:40.852Z,2.01
2023-04-27T06:34:33.342Z,2.11
2023-04-27T06:39:23.512Z,2.21
2023-04-27T06:44:13.471Z,2.34
2023-04-27T06:49:03.344Z,2.42
2023-04-27T06:53:57.451Z,2.61
2023-04-27T06:58:47.406Z,2.61
2023-04-27T07:03:43.671Z,2.78
2023-04-27T07:08:33.637Z,3.04
2023-04-27T07:13:26.623Z,3.15
2023-04-27T07:18:16.611Z,3.29
2023-04-27T07:23:09.028Z,3.30
2023-04-27T07:27:59.894Z,3.22
2023-04-27T07:32:54.855Z,3.83
2023-04-27T07:37:45.728Z,3.98
2023-04-27T07:42:35.647Z,4.12
2023-04-27T07:47:25.697Z,4.29
2023-04-27T07:52:18.367Z,4.37
2023-04-27T07:57:11.806Z,4.68
2023-04-27T08:02:17.653Z,5.06
2023-04-27T08:07:09.750Z,5.78
2023-04-27T08:12:06.822Z,6.65
2023-04-27T08:16:56.927Z,7.67
2023-04-27T08:21:46.986Z,8.54
2023-04-27T08:26:36.970Z,9.39
2023-04-27T08:31:30.491Z,10.08
2023-04-27T08:36:20.558Z,10.61
2023-04-27T08:41:21.300Z,11.00
2023-04-27T08:46:12.113Z,11.63
2023-04-27T08:51:06.086Z,12.29
2023-04-27T08:55:56.988Z,12.83
2023-04-27T09:00:51.969Z,13.02
2023-04-27T09:06:00.654Z,12.99
2023-04-27T09:10:56.981Z,13.14
2023-04-27T09:15:48.990Z,13.02
2023-04-27T09:20:46.407Z,12.61
2023-04-27T09:25:38.228Z,12.84
2023-04-27T09:30:31.991Z,12.78
2023-04-27T09:35:25.658Z,12.70
2023-04-27T09:40:16.693Z,12.36
2023-04-27T09:45:17.979Z,11.99
2023-04-27T09:50:12.622Z,12.02
2023-04-27T09:55:03.968Z,12.27
2023-04-27T10:00:16.486Z,12.11
2023-04-27T10:05:28.910Z,12.20
2023-04-27T10:10:21.217Z,12.23
2023-04-27T10:15:18.692Z,12.49
2023-04-27T10:20:11.746Z,12.30
2023-04-27T10:25:04.430Z,12.44
2023-04-27T10:29:55.223Z,12.35
2023-04-27T10:34:47.784Z,12.54
2023-04-27T10:39:48.708Z,12.75
2023-04-27T10:44:42.530Z,12.54
2023-04-27T10:49:33.116Z,12.81
2023-04-27T10:54:29.370Z,13.05
2023-04-27T10:59:19.349Z,13.07
2023-04-27T11:04:12.420Z,12.66
2023-04-27T11:09:06.676Z,12.75
2023-04-27T11:13:56.678Z,12.71
2023-04-27T11:18:47.825Z,12.66
2023-04-27T11:23:43.800Z,12.75
2023-04-27T11:28:33.738Z,12.72
2023-04-27T11:33:24.222Z,12.94
2023-04-27T11:38:20.744Z,12.85
2023-04-27T11:43:15.736Z,12.96
2023-04-27T11:48:05.767Z,12.80
2023-04-27T11:52:56.197Z,12.81
2023-04-27T11:57:46.315Z,12.96
2023-04-27T12:02:39.046Z,12.96
2023-04-27T12:07:29.377Z,12.93
2023-04-27T12:12:22.755Z,12.57
2023-04-27T12:17:12.791Z,12.80
2023-04-27T12:22:05.595Z,12.69
2023-04-27T12:26:55.869Z,12.79
2023-04-27T12:31:45.986Z,12.93
2023-04-27T12:36:36.483Z,12.63
2023-04-27T12:41:29.475Z,13.12
2023-04-27T12:46:20.121Z,13.38
2023-04-27T12:51:10.086Z,13.31
2023-04-27T12:56:02.072Z,13.07
2023-04-27T13:00:57.863Z,12.86
2023-04-27T13:05:48.004Z,12.93
2023-04-27T13:10:37.864Z,12.82
2023-04-27T13:15:29.939Z,12.60
2023-04-27T13:20:23.649Z,12.81
2023-04-27T13:25:13.447Z,13.05
2023-04-27T13:30:03.241Z,13.18
2023-04-27T13:34:53.057Z,13.37
2023-04-27T13:39:45.929Z,13.36
2023-04-27T13:44:35.773Z,13.18
2023-04-27T13:49:26.111Z,13.11
2023-04-27T13:54:16.091Z,13.19
2023-04-27T13:59:10.628Z,13.13
2023-04-27T14:04:00.638Z,13.22
2023-04-27T14:08:51.432Z,13.06
2023-04-27T14:13:42.249Z,13.06
2023-04-27T14:18:34.925Z,13.00
2023-04-27T14:23:25.061Z,13.11
2023-04-27T14:28:16.786Z,13.02
2023-04-27T14:33:06.973Z,13.02
2023-04-27T14:38:02.476Z,13.09
2023-04-27T14:42:52.899Z,12.76
2023-04-27T14:47:42.730Z,12.88
2023-04-27T14:52:32.780Z,12.85
2023-04-27T14:57:25.200Z,12.80
2023-04-27T15:02:15.081Z,12.66
2023-04-27T15:07:05.528Z,12.61
2023-04-27T15:11:55.339Z,12.46
2023-04-27T15:16:47.892Z,12.29
2023-04-27T15:21:39.086Z,12.27
2023-04-27T15:26:29.701Z,12.38
2023-04-27T15:31:19.682Z,12.28
2023-04-27T15:36:13.081Z,12.15
2023-04-27T15:41:03.477Z,12.05
2023-04-27T15:45:54.769Z,12.07
2023-04-27T15:50:44.881Z,12.16
2023-04-27T15:55:37.491Z,12.23
2023-04-27T16:00:27.778Z,12.47
2023-04-27T16:05:18.127Z,12.51
2023-04-27T16:10:09.245Z,12.50
2023-04-27T16:15:01.784Z,12.35
2023-04-27T16:19:51.798Z,12.06
2023-04-27T16:24:41.634Z,11.83
2023-04-27T16:29:31.697Z,11.67
2023-04-27T16:34:24.509Z,11.56
2023-04-27T16:39:15.209Z,11.44
2023-04-27T16:44:05.775Z,11.30
2023-04-27T16:48:56.119Z,11.11
2023-04-27T16:53:50.794Z,11.04
2023-04-27T16:58:43.281Z,10.71
2023-04-27T17:03:34.949Z,10.69
2023-04-27T17:08:26.242Z,10.58
2023-04-27T17:13:19.327Z,10.55
2023-04-27T17:18:09.944Z,10.36
2023-04-27T17:22:59.724Z,10.32
2023-04-27T17:27:52.595Z,10.22
2023-04-27T17:32:45.254Z,9.94
2023-04-27T17:37:35.085Z,9.95
2023-04-27T17:42:26.126Z,9.96
2023-04-27T17:47:19.005Z,9.75
2023-04-27T17:52:12.708Z,9.60
2023-04-27T17:57:02.651Z,9.73
2023-04-27T18:01:55.241Z,9.61
2023-04-27T18:06:45.523Z,9.54
2023-04-27T18:11:38.698Z,9.50
2023-04-27T18:16:29.093Z,9.50
2023-04-27T18:21:19.373Z,9.43
2023-04-27T18:26:11.070Z,9.41
2023-04-27T18:31:04.466Z,9.33
2023-04-27T18:35:54.472Z,9.35
2023-04-27T18:40:51.138Z,9.27
2023-04-27T18:45:41.106Z,9.16
2023-04-27T18:50:33.762Z,9.16
2023-04-27T18:55:26.218Z,9.07
2023-04-27T19:00:17.611Z,9.09
2023-04-27T19:05:13.155Z,8.93
2023-04-27T19:10:06.948Z,8.81
2023-04-27T19:15:04.863Z,8.85
2023-04-27T19:19:55.296Z,8.79
2023-04-27T19:24:45.278Z,8.69
2023-04-27T19:29:54.923Z,8.48
2023-04-27T19:34:44.884Z,8.55
2023-04-27T19:39:35.977Z,8.45
2023-04-27T19:44:26.261Z,8.37
2023-04-27T19:49:19.267Z,8.43
2023-04-27T19:54:12.210Z,8.39
2023-04-27T19:59:04.371Z,8.30
2023-04-27T20:03:54.630Z,8.31
2023-04-27T20:08:47.069Z,8.21
2023-04-27T20:13:38.849Z,8.25
2023-04-27T20:18:31.873Z,8.30
2023-04-27T20:23:21.672Z,8.17
2023-04-27T20:28:14.625Z,8.16
2023-04-27T20:33:04.794Z,8.11
2023-04-27T20:37:55.015Z,7.97
2023-04-27T20:42:46.023Z,8.00
2023-04-27T20:47:38.576Z,7.96
2023-04-27T20:52:31.825Z,8.06
2023-04-27T20:57:23.086Z,8.01
2023-04-27T21:02:13.021Z,7.92
2023-04-27T21:07:06.177Z,7.89
2023-04-27T21:11:56.085Z,7.90
2023-04-27T21:16:45.949Z,7.82
2023-04-27T21:21:35.775Z,7.89
2023-04-27T21:26:28.455Z,7.75
2023-04-27T21:31:20.044Z,7.82
2023-04-27T21:36:10.893Z,7.72
2023-04-27T21:41:02.007Z,7.75
2023-04-27T21:45:54.916Z,7.72
2023-04-27T21:50:44.904Z,7.73
2023-04-27T21:55:34.743Z,7.74
2023-04-27T22:00:25.810Z,7.71
2023-04-27T22:05:21.137Z,7.71
2023-04-27T22:10:12.218Z,7.66
2023-04-27T22:15:03.383Z,7.62
2023-04-27T22:19:53.169Z,7.62
2023-04-27T22:24:45.657Z,7.66
2023-04-27T22:29:35.642Z,7.54
2023-04-27T22:34:26.329Z,7.53
2023-04-27T22:39:16.390Z,7.49
2023-04-27T22:44:08.874Z,7.41
2023-04-27T22:49:01.581Z,7.44
2023-04-27T22:53:51.855Z,7.34
2023-04-27T22:58:45.241Z,7.31
2023-04-27T23:03:38.294Z,7.37
2023-04-27T23:08:29.023Z,7.33
2023-04-27T23:13:18.826Z,7.31
2023-04-27T23:18:10.012Z,7.35
2023-04-27T23:23:02.750Z,7.33
2023-04-27T23:27:53.000Z,7.24
2023-04-27T23:32:43.459Z,7.21
2023-04-27T23:37:34.738Z,7.14
2023-04-27T23:42:27.825Z,7.13
2023-04-27T23:47:17.661Z,7.07
2023-04-27T23:52:08.112Z,7.10
2023-04-27T23:56:58.295Z,7.06
